Time;durP1;ratioP1;P1;durP2;ratioP2;P2;SDS_P1;SDS_P2;PMS_P1;PMS_P2;Temp;Humidity;BMP_temperature;BMP_pressure;BME280_temperature;BME280_humidity;BME280_pressure;Samples;Min_cycle;Max_cycle;Signal;HPM_P1;HPM_P2
2023/03/07 00:00:38;;;;;;;84.90;35.50;;;;;;;0.56;55.33;100334.69;107488;1256;110633;-61
2023/03/07 00:03:15;;;;;;;80.70;34.00;;;;;;;0.58;54.87;100326.51;107346;1254;108008;-60
2023/03/07 00:05:43;;;;;;;86.00;33.50;;;;;;;0.58;54.80;100324.21;107423;1254;97815;-60
2023/03/07 00:08:12;;;;;;;88.70;36.20;;;;;;;0.57;54.83;100320.71;107446;1254;97819;-60
2023/03/07 00:10:40;;;;;;;85.00;34.60;;;;;;;0.54;55.17;100318.58;107310;1256;112217;-61
2023/03/07 00:13:09;;;;;;;94.70;36.30;;;;;;;0.51;55.18;100311.90;107553;1254;108981;-61
2023/03/07 00:15:39;;;;;;;83.40;38.40;;;;;;;0.51;55.06;100314.00;107480;1256;108456;-59
2023/03/07 00:18:07;;;;;;;77.60;34.90;;;;;;;0.51;55.09;100308.02;107433;1254;97925;-61
2023/03/07 00:20:35;;;;;;;98.90;42.40;;;;;;;0.49;55.19;100302.95;107360;1254;98358;-61
2023/03/07 00:23:04;;;;;;;103.90;43.60;;;;;;;0.48;55.22;100296.34;107410;1254;111637;-59
2023/03/07 00:25:32;;;;;;;112.70;46.70;;;;;;;0.46;55.27;100292.73;107477;1254;109973;-59
2023/03/07 00:28:00;;;;;;;131.00;46.70;;;;;;;0.43;55.39;100289.67;107460;1258;108387;-60
2023/03/07 00:30:29;;;;;;;103.50;44.20;;;;;;;0.40;55.59;100282.98;107569;1254;97824;-60
2023/03/07 00:32:57;;;;;;;101.60;45.00;;;;;;;0.37;55.64;100278.73;107344;1254;98421;-60
2023/03/07 00:35:26;;;;;;;106.40;44.90;;;;;;;0.36;56.00;100274.88;107471;1254;112086;-62
2023/03/07 00:37:55;;;;;;;111.30;47.50;;;;;;;0.33;56.10;100271.88;107335;1254;109390;-60
2023/03/07 00:40:23;;;;;;;122.40;48.90;;;;;;;0.29;56.04;100267.86;107513;1253;108896;-60
2023/03/07 00:42:52;;;;;;;116.90;49.90;;;;;;;0.27;56.00;100268.16;107544;1253;97795;-61
2023/03/07 00:45:21;;;;;;;132.60;53.70;;;;;;;0.24;56.22;100265.69;107504;1254;97726;-60
2023/03/07 00:47:50;;;;;;;146.50;54.20;;;;;;;0.20;56.14;100262.20;107474;1254;111763;-60
2023/03/07 00:50:18;;;;;;;137.90;54.20;;;;;;;0.19;55.91;100259.59;107321;1254;109031;-60
2023/03/07 00:52:47;;;;;;;148.20;54.20;;;;;;;0.17;56.42;100253.88;107350;1254;109064;-61
2023/03/07 00:55:16;;;;;;;156.70;54.90;;;;;;;0.17;56.47;100250.53;107434;1254;97809;-61
2023/03/07 00:57:45;;;;;;;127.60;55.20;;;;;;;0.17;56.37;100246.31;107468;1254;97839;-59
2023/03/07 01:00:14;;;;;;;150.10;58.00;;;;;;;0.16;56.79;100240.89;107460;1254;112193;-61
2023/03/07 01:02:42;;;;;;;149.90;57.40;;;;;;;0.12;57.08;100234.54;107444;1254;110466;-61
2023/03/07 01:05:11;;;;;;;152.20;57.10;;;;;;;0.08;57.01;100227.23;107450;1254;108259;-60
2023/03/07 01:07:39;;;;;;;136.70;55.70;;;;;;;0.05;56.96;100228.06;107334;1254;97831;-61
2023/03/07 01:10:08;;;;;;;150.30;59.10;;;;;;;0.02;57.27;100226.45;107439;1254;97868;-59
2023/03/07 01:12:37;;;;;;;145.20;58.60;;;;;;;0.01;57.28;100222.83;107361;1254;111981;-60
2023/03/07 01:15:06;;;;;;;142.40;54.20;;;;;;;-0.03;57.40;100217.88;107267;1254;109320;-61
2023/03/07 01:17:35;;;;;;;138.00;53.20;;;;;;;-0.05;57.39;100208.83;107329;1254;107523;-59
2023/03/07 01:20:05;;;;;;;134.30;55.60;;;;;;;-0.07;57.82;100206.65;107440;1254;97921;-61
2023/03/07 01:22:35;;;;;;;130.90;51.80;;;;;;;-0.10;57.75;100205.97;107299;1254;98486;-62
2023/03/07 01:25:05;;;;;;;142.90;52.90;;;;;;;-0.12;57.81;100197.55;107465;1254;112052;-60
2023/03/07 01:27:34;;;;;;;138.30;54.80;;;;;;;-0.11;57.74;100196.67;107450;1254;109718;-59
2023/03/07 01:30:04;;;;;;;142.50;54.80;;;;;;;-0.10;57.71;100193.98;107455;1254;108578;-60
2023/03/07 01:32:33;;;;;;;133.10;51.20;;;;;;;-0.09;57.95;100189.52;107339;1253;97855;-61
2023/03/07 01:35:02;;;;;;;128.40;47.50;;;;;;;-0.07;58.07;100188.14;107369;1254;98383;-61
2023/03/07 01:37:30;;;;;;;120.30;45.20;;;;;;;-0.03;58.01;100180.56;107309;1254;112345;-60
2023/03/07 01:39:59;;;;;;;128.80;47.90;;;;;;;0.03;58.11;100177.91;107470;1254;108763;-61
2023/03/07 01:42:31;;;;;;;125.50;46.90;;;;;;;0.09;58.08;100172.84;107417;1253;109471;-60
2023/03/07 01:45:04;;;;;;;121.90;46.40;;;;;;;0.14;58.27;100171.15;107449;1253;97756;-61
2023/03/07 01:47:43;;;;;;;143.30;46.90;;;;;;;0.21;58.22;100168.16;107448;1253;97716;-60
2023/03/07 01:50:16;;;;;;;132.60;50.10;;;;;;;0.25;58.40;100161.75;107456;1253;114188;-61
2023/03/07 01:52:49;;;;;;;122.90;44.30;;;;;;;0.28;58.90;100157.31;107361;1254;109227;-59
2023/03/07 01:55:23;;;;;;;143.10;52.00;;;;;;;0.32;58.79;100159.40;107417;1254;108510;-60
2023/03/07 01:57:56;;;;;;;141.80;53.40;;;;;;;0.36;58.89;100159.70;107322;1254;97835;-59
2023/03/07 02:00:28;;;;;;;164.90;56.60;;;;;;;0.42;58.77;100159.73;107297;1257;97762;-61
2023/03/07 02:03:09;;;;;;;143.60;53.40;;;;;;;0.45;59.16;100155.86;107200;1255;109815;-61
2023/03/07 02:05:46;;;;;;;127.70;48.70;;;;;;;0.47;59.07;100158.39;107314;1256;109856;-61
2023/03/07 02:08:17;;;;;;;141.10;46.90;;;;;;;0.52;59.14;100162.69;107272;1257;107817;-61
2023/03/07 02:10:46;;;;;;;89.80;32.50;;;;;;;0.55;59.45;100160.80;107171;1256;98552;-60
2023/03/07 02:13:16;;;;;;;99.60;36.40;;;;;;;0.53;59.12;100166.70;107402;1256;97684;-61
2023/03/07 02:15:45;;;;;;;69.00;29.90;;;;;;;0.57;58.94;100164.92;107298;1255;111114;-61
2023/03/07 02:18:19;;;;;;;63.00;27.70;;;;;;;0.61;58.79;100161.88;107262;1254;110018;-60
2023/03/07 02:21:22;;;;;;;74.90;27.90;;;;;;;0.66;58.52;100158.60;107219;1261;108568;-60
2023/03/07 02:24:10;;;;;;;76.70;28.50;;;;;;;0.73;58.37;100156.42;107130;1256;98506;-60
2023/03/07 02:26:52;;;;;;;64.70;26.30;;;;;;;0.77;58.17;100158.81;107046;1257;97847;-64
2023/03/07 02:29:21;;;;;;;51.60;21.70;;;;;;;0.81;57.99;100161.63;107184;1256;110745;-59
2023/03/07 02:31:49;;;;;;;49.50;21.90;;;;;;;0.81;57.99;100165.86;107350;1259;110260;-60
2023/03/07 02:34:24;;;;;;;55.90;22.90;;;;;;;0.81;57.82;100162.16;107259;1254;108595;-60
2023/03/07 02:37:13;;;;;;;112.70;38.50;;;;;;;0.81;58.04;100160.04;107412;1254;97848;-61
2023/03/07 02:39:45;;;;;;;103.70;35.10;;;;;;;0.81;57.58;100166.58;107370;1255;97921;-62
2023/03/07 02:42:21;;;;;;;164.30;56.30;;;;;;;0.83;57.34;100157.80;107372;1257;112141;-60
2023/03/07 02:45:03;;;;;;;210.40;69.30;;;;;;;0.85;57.21;100162.61;107421;1257;109927;-62
2023/03/07 02:47:34;;;;;;;214.90;70.50;;;;;;;0.87;57.09;100156.86;107369;1256;108318;-61
2023/03/07 02:50:04;;;;;;;242.70;70.50;;;;;;;0.89;56.98;100162.20;107325;1256;97935;-61
2023/03/07 02:52:34;;;;;;;226.90;74.40;;;;;;;0.87;56.85;100157.75;107391;1256;97932;-60
2023/03/07 02:55:02;;;;;;;199.80;65.10;;;;;;;0.88;56.92;100150.05;107131;1255;111266;-61
2023/03/07 02:57:34;;;;;;;172.90;53.20;;;;;;;0.90;56.90;100145.55;107132;1257;109146;-59
2023/03/07 03:00:09;;;;;;;148.80;50.10;;;;;;;0.91;56.83;100140.70;107229;1260;106727;-62
2023/03/07 03:02:39;;;;;;;;;;;;;;;0.93;56.67;100134.95;107367;1253;98634;-61
2023/03/07 03:05:08;;;;;;;115.90;40.80;;;;;;;0.95;56.60;100124.04;107493;1254;98508;-60
2023/03/07 03:07:37;;;;;;;95.50;34.30;;;;;;;0.94;56.99;100122.91;107467;1253;111317;-60
2023/03/07 03:10:06;;;;;;;102.70;36.90;;;;;;;0.92;56.70;100123.17;107461;1254;109684;-60
2023/03/07 03:12:35;;;;;;;97.50;32.60;;;;;;;0.95;56.51;100123.90;107584;1253;105608;-60
2023/03/07 03:15:05;;;;;;;101.60;35.70;;;;;;;0.99;56.57;100115.92;107556;1253;97889;-61
2023/03/07 03:17:34;;;;;;;96.40;33.70;;;;;;;1.02;56.51;100108.65;107301;1257;98483;-61
2023/03/07 03:20:11;;;;;;;109.00;40.40;;;;;;;1.05;56.59;100107.42;107387;1259;112130;-61
2023/03/07 03:22:40;;;;;;;146.20;48.10;;;;;;;1.07;56.55;100108.86;107313;1259;109840;-60
2023/03/07 03:25:12;;;;;;;166.10;53.90;;;;;;;1.08;56.59;100103.36;107536;1254;106975;-60
2023/03/07 03:27:41;;;;;;;174.00;60.70;;;;;;;1.05;56.81;100107.40;107610;1252;97887;-60
2023/03/07 03:30:11;;;;;;;181.10;59.50;;;;;;;1.03;56.66;100114.41;107514;1254;97891;-60
2023/03/07 03:32:40;;;;;;;174.90;61.30;;;;;;;1.06;56.99;100107.02;107215;1254;112031;-60
2023/03/07 03:35:10;;;;;;;175.30;64.40;;;;;;;1.09;56.77;100101.31;107490;1254;108744;-61
2023/03/07 03:37:40;;;;;;;208.20;70.10;;;;;;;1.12;56.80;100100.64;107554;1254;107620;-61
2023/03/07 03:40:13;;;;;;;207.80;69.50;;;;;;;1.15;57.08;100101.70;107462;1254;97918;-62
2023/03/07 03:42:43;;;;;;;;;;;;;;;1.15;57.41;100101.52;107331;1254;97819;-59
2023/03/07 03:45:16;;;;;;;190.50;64.40;;;;;;;1.14;57.47;100104.40;107455;1254;112366;-61
2023/03/07 03:47:47;;;;;;;193.70;65.10;;;;;;;1.15;57.30;100103.81;107381;1253;109675;-60
2023/03/07 03:50:16;;;;;;;168.30;58.60;;;;;;;1.17;57.25;100107.92;107446;1254;107781;-61
2023/03/07 03:52:45;;;;;;;154.90;57.20;;;;;;;1.18;57.26;100105.77;107439;1259;97720;-61
2023/03/07 03:55:13;;;;;;;155.00;56.80;;;;;;;1.19;57.09;100108.02;107322;1254;98367;-61
2023/03/07 03:57:42;;;;;;;173.80;58.40;;;;;;;1.20;57.29;100101.39;107527;1254;112286;-61
2023/03/07 04:00:13;;;;;;;160.40;52.50;;;;;;;1.21;57.35;100101.86;107421;1254;110125;-61
2023/03/07 04:02:42;;;;;;;130.00;49.20;;;;;;;1.22;57.33;100103.40;107420;1254;105749;-61
2023/03/07 04:05:15;;;;;;;140.20;47.90;;;;;;;1.23;57.28;100104.73;107380;1255;97845;-60
2023/03/07 04:07:44;;;;;;;138.60;46.20;;;;;;;1.26;57.85;100097.88;107489;1254;98532;-59
2023/03/07 04:10:12;;;;;;;124.30;44.30;;;;;;;1.27;57.56;100098.16;107506;1253;111305;-61
2023/03/07 04:12:42;;;;;;;138.50;46.00;;;;;;;1.29;57.45;100100.19;107529;1253;110176;-59
2023/03/07 04:15:11;;;;;;;142.40;49.90;;;;;;;1.30;57.50;100096.42;107486;1254;107829;-59
2023/03/07 04:17:39;;;;;;;127.60;48.10;;;;;;;1.31;57.45;100089.27;107453;1254;98009;-60
2023/03/07 04:20:16;;;;;;;140.40;49.80;;;;;;;1.31;57.57;100088.55;107438;1253;98453;-61
2023/03/07 04:22:46;;;;;;;148.50;52.90;;;;;;;1.30;57.57;100087.55;107394;1253;112195;-61
2023/03/07 04:25:14;;;;;;;161.30;54.80;;;;;;;1.30;57.53;100091.63;107461;1253;109256;-61
2023/03/07 04:27:43;;;;;;;149.60;56.20;;;;;;;1.28;57.81;100098.14;107410;1254;108639;-60
2023/03/07 04:30:12;;;;;;;171.60;58.40;;;;;;;1.25;57.82;100096.48;107304;1255;97815;-60
2023/03/07 04:32:41;;;;;;;162.70;59.30;;;;;;;1.24;58.05;100098.14;107489;1254;97848;-59
2023/03/07 04:35:10;;;;;;;169.50;56.50;;;;;;;1.22;57.88;100103.02;107503;1254;112331;-60
2023/03/07 04:37:38;;;;;;;144.50;54.30;;;;;;;1.21;57.85;100103.77;107456;1254;110148;-61
2023/03/07 04:40:08;;;;;;;143.00;56.00;;;;;;;1.19;57.99;100101.84;107450;1254;108675;-59
2023/03/07 04:42:37;;;;;;;153.00;55.70;;;;;;;1.17;58.17;100104.95;107362;1256;97829;-60
2023/03/07 04:45:06;;;;;;;154.50;54.40;;;;;;;1.14;58.14;100102.28;107488;1254;97812;-60
2023/03/07 04:47:35;;;;;;;151.70;55.70;;;;;;;1.14;58.21;100107.23;107476;1258;111248;-60
2023/03/07 04:50:05;;;;;;;147.90;55.20;;;;;;;1.13;58.25;100103.05;107397;1254;109098;-60
2023/03/07 04:52:35;;;;;;;152.70;53.50;;;;;;;1.12;58.53;100104.34;107373;1254;106092;-60
2023/03/07 04:55:05;;;;;;;129.10;52.50;;;;;;;1.12;58.48;100107.04;107462;1253;97837;-60
2023/03/07 04:57:33;;;;;;;146.30;55.20;;;;;;;1.11;58.51;100105.14;107372;1254;97822;-59
2023/03/07 05:00:08;;;;;;;153.70;56.30;;;;;;;1.11;58.68;100104.62;107369;1254;112773;-60
2023/03/07 05:02:37;;;;;;;141.30;50.60;;;;;;;1.09;58.87;100102.73;107447;1254;109950;-62
2023/03/07 05:05:06;;;;;;;125.10;47.70;;;;;;;1.09;59.03;100104.36;107455;1254;108940;-60
2023/03/07 05:07:35;;;;;;;129.10;50.30;;;;;;;1.10;59.07;100109.41;107470;1254;97816;-61
2023/03/07 05:10:04;;;;;;;132.60;49.40;;;;;;;1.09;59.07;100111.57;107462;1254;97739;-61
2023/03/07 05:12:33;;;;;;;149.50;54.40;;;;;;;1.09;59.35;100112.96;107340;1254;111404;-60
2023/03/07 05:15:01;;;;;;;173.20;63.90;;;;;;;1.09;59.44;100116.90;107266;1254;109509;-60
2023/03/07 05:17:30;;;;;;;161.60;61.20;;;;;;;1.09;59.68;100113.56;107342;1254;108735;-62
2023/03/07 05:19:58;;;;;;;230.60;82.30;;;;;;;1.10;59.84;100114.20;107293;1254;97835;-59
2023/03/07 05:22:27;;;;;;;245.20;91.50;;;;;;;1.14;60.08;100122.63;107523;1254;97824;-61
2023/03/07 05:24:57;;;;;;;205.30;77.80;;;;;;;1.17;60.13;100117.81;107401;1254;112385;-60
2023/03/07 05:27:26;;;;;;;171.20;64.10;;;;;;;1.23;60.38;100121.52;107546;1254;109952;-60
2023/03/07 05:29:54;;;;;;;175.10;62.90;;;;;;;1.31;60.27;100124.96;107480;1254;108030;-60
2023/03/07 05:32:23;;;;;;;165.20;61.90;;;;;;;1.40;60.40;100129.20;107584;1254;97704;-60
2023/03/07 05:34:52;;;;;;;173.30;64.60;;;;;;;1.52;60.55;100130.77;107462;1254;97844;-60
2023/03/07 05:37:22;;;;;;;165.40;57.40;;;;;;;1.66;60.49;100138.23;107555;1254;110748;-61
2023/03/07 05:39:50;;;;;;;186.40;66.50;;;;;;;1.81;60.52;100141.55;107434;1258;108992;-61
2023/03/07 05:42:19;;;;;;;170.90;61.30;;;;;;;1.93;60.64;100145.23;107450;1259;108156;-59
2023/03/07 05:44:48;;;;;;;159.50;61.10;;;;;;;2.05;60.63;100150.48;107334;1254;97832;-61
2023/03/07 05:47:17;;;;;;;172.20;59.60;;;;;;;2.16;60.66;100149.40;107331;1253;97952;-60
2023/03/07 05:49:46;;;;;;;160.40;56.90;;;;;;;2.26;60.44;100151.31;107319;1254;112300;-59
2023/03/07 05:52:14;;;;;;;154.90;53.40;;;;;;;2.35;60.52;100149.96;107412;1254;108903;-58
2023/03/07 05:54:43;;;;;;;143.60;54.30;;;;;;;2.47;60.59;100145.88;107302;1254;108689;-61
2023/03/07 05:57:12;;;;;;;150.90;55.60;;;;;;;2.60;60.58;100147.31;107338;1254;97864;-59
2023/03/07 05:59:41;;;;;;;148.80;57.80;;;;;;;2.75;60.39;100145.45;107472;1254;98370;-60
2023/03/07 06:02:09;;;;;;;135.70;53.80;;;;;;;2.91;60.22;100144.76;107469;1253;111809;-60
2023/03/07 06:04:37;;;;;;;154.90;52.80;;;;;;;3.06;60.08;100141.12;107441;1258;110212;-61
2023/03/07 06:07:06;;;;;;;133.40;49.40;;;;;;;3.18;60.02;100142.11;107459;1254;108375;-61
2023/03/07 06:09:35;;;;;;;119.90;49.00;;;;;;;3.26;60.00;100136.78;107453;1254;97934;-61
2023/03/07 06:12:04;;;;;;;122.80;46.80;;;;;;;3.33;59.71;100137.36;107326;1259;97797;-61
2023/03/07 06:14:32;;;;;;;101.90;40.80;;;;;;;3.41;59.50;100139.64;107399;1255;111356;-60
2023/03/07 06:17:01;;;;;;;98.50;38.60;;;;;;;3.48;59.60;100138.47;107318;1257;109456;-60
2023/03/07 06:19:31;;;;;;;90.10;36.70;;;;;;;3.51;59.70;100131.85;107367;1259;108001;-60
2023/03/07 06:21:59;;;;;;;94.80;37.50;;;;;;;3.54;59.54;100132.02;107427;1254;98640;-61
2023/03/07 06:24:27;;;;;;;81.70;33.60;;;;;;;3.57;59.39;100131.30;107619;1254;97838;-59
2023/03/07 06:26:56;;;;;;;83.80;33.40;;;;;;;3.62;59.02;100130.77;107608;1254;111043;-60
2023/03/07 06:29:25;;;;;;;97.40;33.10;;;;;;;3.72;58.74;100133.10;107525;1254;109708;-63
2023/03/07 06:31:54;;;;;;;103.90;34.90;;;;;;;3.81;58.78;100128.36;107396;1253;108830;-60
2023/03/07 06:34:24;;;;;;;88.20;35.70;;;;;;;3.90;58.49;100130.42;107401;1254;97819;-61
2023/03/07 06:36:52;;;;;;;100.80;36.10;;;;;;;3.97;58.30;100130.40;107469;1254;98322;-61
2023/03/07 06:39:21;;;;;;;92.50;35.80;;;;;;;4.04;58.26;100128.18;107217;1253;111474;-62
2023/03/07 06:41:51;;;;;;;76.30;32.10;;;;;;;4.09;57.72;100126.73;107511;1254;110077;-61
2023/03/07 06:44:19;;;;;;;86.10;35.40;;;;;;;4.11;57.61;100128.60;107470;1254;109748;-61
2023/03/07 06:46:48;;;;;;;110.10;39.80;;;;;;;4.13;57.61;100127.69;107410;1254;97707;-60
2023/03/07 06:49:19;;;;;;;87.80;35.60;;;;;;;4.17;57.92;100122.48;107409;1254;98421;-61
2023/03/07 06:51:48;;;;;;;91.60;36.20;;;;;;;4.23;57.89;100117.08;107328;1254;112380;-60
2023/03/07 06:54:17;;;;;;;78.40;33.20;;;;;;;4.29;57.76;100115.89;107415;1254;109284;-64
2023/03/07 06:56:45;;;;;;;99.30;33.60;;;;;;;4.35;57.67;100116.40;107321;1253;107645;-60
2023/03/07 06:59:16;;;;;;;98.00;31.70;;;;;;;4.41;57.18;100112.78;107421;1254;97873;-60
2023/03/07 07:01:47;;;;;;;86.30;33.20;;;;;;;4.46;57.19;100114.89;107307;1254;97919;-62
2023/03/07 07:04:17;;;;;;;102.10;34.60;;;;;;;4.51;56.88;100115.74;107475;1254;111798;-61
2023/03/07 07:06:48;;;;;;;99.70;31.50;;;;;;;4.58;56.54;100117.20;107444;1254;110812;-61
2023/03/07 07:09:16;;;;;;;78.80;32.30;;;;;;;4.62;56.64;100114.41;107457;1254;108351;-60
2023/03/07 07:11:45;;;;;;;78.00;28.80;;;;;;;4.68;56.48;100116.94;107475;1254;97711;-61
2023/03/07 07:14:14;;;;;;;83.70;31.90;;;;;;;4.75;55.75;100113.80;107485;1254;98484;-61
2023/03/07 07:16:42;;;;;;;80.60;30.20;;;;;;;4.80;55.82;100110.08;107307;1254;111870;-61
2023/03/07 07:19:11;;;;;;;73.40;27.60;;;;;;;4.84;55.43;100112.57;107443;1254;109865;-60
2023/03/07 07:21:39;;;;;;;64.80;25.40;;;;;;;4.90;55.10;100109.48;107449;1254;108447;-62
2023/03/07 07:24:11;;;;;;;67.90;26.10;;;;;;;4.96;55.28;100113.80;107331;1254;97819;-61
2023/03/07 07:26:39;;;;;;;65.20;24.70;;;;;;;5.04;55.09;100122.67;107281;1254;97771;-62
2023/03/07 07:29:08;;;;;;;57.40;25.80;;;;;;;5.12;54.85;100119.39;107489;1254;111368;-61
2023/03/07 07:31:37;;;;;;;81.60;26.80;;;;;;;5.21;54.70;100120.09;107252;1254;110006;-61
2023/03/07 07:34:06;;;;;;;64.80;25.20;;;;;;;5.34;54.52;100117.72;107314;1257;107319;-64
2023/03/07 07:36:35;;;;;;;68.60;24.90;;;;;;;5.48;54.09;100115.70;107375;1254;97896;-60
2023/03/07 07:39:05;;;;;;;71.80;25.90;;;;;;;5.66;53.04;100116.66;107323;1254;97781;-61
2023/03/07 07:41:37;;;;;;;53.50;22.50;;;;;;;5.82;52.83;100119.14;107336;1254;112339;-62
2023/03/07 07:44:06;;;;;;;52.00;21.70;;;;;;;5.96;52.50;100112.48;107281;1254;110043;-61
2023/03/07 07:46:38;;;;;;;62.50;23.10;;;;;;;6.11;52.18;100112.39;107430;1254;107992;-61
2023/03/07 07:49:07;;;;;;;58.20;24.10;;;;;;;6.27;51.77;100106.35;107421;1258;97908;-63
2023/03/07 07:51:36;;;;;;;61.60;21.20;;;;;;;6.43;51.23;100105.39;107436;1254;98391;-61
2023/03/07 07:54:05;;;;;;;39.00;17.50;;;;;;;6.59;49.73;100104.15;107440;1254;112482;-61
2023/03/07 07:56:33;;;;;;;32.40;16.10;;;;;;;6.73;49.87;100101.73;107340;1254;110043;-61
2023/03/07 07:59:02;;;;;;;32.80;15.40;;;;;;;6.85;49.19;100101.42;107263;1254;107096;-62
2023/03/07 08:01:31;;;;;;;30.30;15.80;;;;;;;6.98;48.08;100103.16;107289;1254;97966;-61
2023/03/07 08:03:59;;;;;;;34.80;16.70;;;;;;;7.16;47.92;100102.55;107480;1254;98358;-61
2023/03/07 08:06:28;;;;;;;29.70;15.50;;;;;;;7.31;47.78;100105.39;107319;1259;111788;-62
2023/03/07 08:08:58;;;;;;;35.10;16.60;;;;;;;7.46;48.02;100105.54;107427;1257;109838;-62
2023/03/07 08:11:27;;;;;;;41.20;16.30;;;;;;;7.65;48.04;100103.60;107358;1257;108912;-61
2023/03/07 08:13:56;;;;;;;37.80;16.40;;;;;;;7.85;47.52;100107.16;107323;1255;98079;-62
2023/03/07 08:16:24;;;;;;;37.40;15.80;;;;;;;8.05;46.20;100105.26;107324;1256;98396;-60
2023/03/07 08:18:54;;;;;;;40.50;16.10;;;;;;;8.23;46.36;100100.14;107312;1256;111975;-60
2023/03/07 08:21:24;;;;;;;35.80;14.60;;;;;;;8.41;46.31;100103.14;107355;1257;110014;-63
2023/03/07 08:23:54;;;;;;;32.20;14.60;;;;;;;8.57;45.97;100099.55;107271;1257;107824;-61
2023/03/07 08:26:22;;;;;;;26.80;13.40;;;;;;;8.72;45.79;100099.98;107352;1257;98372;-61
2023/03/07 08:28:51;;;;;;;31.80;13.90;;;;;;;8.89;45.63;100098.14;107379;1255;98431;-60
2023/03/07 08:31:22;;;;;;;23.00;12.80;;;;;;;9.02;44.36;100095.27;107427;1257;111718;-62
2023/03/07 08:33:52;;;;;;;25.80;12.80;;;;;;;9.17;44.75;100091.79;107442;1254;110026;-61
2023/03/07 08:36:20;;;;;;;21.90;12.80;;;;;;;9.32;45.04;100093.27;107438;1254;108510;-60
2023/03/07 08:38:50;;;;;;;34.50;12.90;;;;;;;9.49;44.21;100094.31;107416;1254;97838;-59
2023/03/07 08:41:21;;;;;;;26.50;12.50;;;;;;;9.67;43.97;100098.67;107439;1254;97823;-60
2023/03/07 08:43:50;;;;;;;29.00;14.70;;;;;;;9.91;42.98;100098.96;107335;1254;112286;-60
2023/03/07 08:46:19;;;;;;;33.20;14.00;;;;;;;10.10;42.72;100102.36;107464;1254;108787;-62
2023/03/07 08:48:48;;;;;;;29.30;14.10;;;;;;;10.22;42.05;100102.23;107459;1254;108593;-61
2023/03/07 08:51:17;;;;;;;29.50;14.70;;;;;;;10.30;41.44;100101.75;107390;1254;97719;-60
2023/03/07 08:53:46;;;;;;;23.80;13.20;;;;;;;10.46;42.40;100102.41;107379;1257;97914;-61
2023/03/07 08:56:17;;;;;;;32.40;14.70;;;;;;;10.70;42.55;100099.16;107439;1254;111699;-62
2023/03/07 08:58:45;;;;;;;28.50;12.10;;;;;;;10.95;41.33;100096.63;107442;1254;110014;-62
2023/03/07 09:01:14;;;;;;;29.30;12.20;;;;;;;11.18;41.42;100097.45;107430;1254;108689;-62
2023/03/07 09:03:43;;;;;;;20.50;11.60;;;;;;;11.41;41.18;100095.42;107425;1254;97810;-61
2023/03/07 09:06:17;;;;;;;21.10;11.30;;;;;;;11.66;40.87;100093.58;107477;1254;97672;-63
2023/03/07 09:08:46;;;;;;;;;;;;;;;11.87;40.03;100092.30;107452;1254;112531;-63
2023/03/07 09:11:16;;;;;;;23.50;11.50;;;;;;;12.09;39.96;100092.49;107397;1254;109809;-61
2023/03/07 09:13:44;;;;;;;16.00;9.90;;;;;;;12.28;38.23;100092.48;107436;1258;108626;-61
2023/03/07 09:16:20;;;;;;;17.70;9.80;;;;;;;12.50;37.42;100085.67;107416;1254;97823;-60
2023/03/07 09:18:49;;;;;;;17.50;9.50;;;;;;;12.69;37.52;100078.08;107426;1254;97723;-62
2023/03/07 09:21:18;;;;;;;24.90;11.60;;;;;;;12.96;38.58;100075.08;107478;1254;111736;-61
2023/03/07 09:23:46;;;;;;;16.40;8.80;;;;;;;13.31;37.61;100076.81;107444;1254;110206;-62
2023/03/07 09:26:15;;;;;;;20.30;8.90;;;;;;;13.63;37.03;100071.69;107407;1254;108603;-62
2023/03/07 09:28:43;;;;;;;16.20;8.60;;;;;;;14.13;37.20;100069.70;107388;1257;97976;-61
2023/03/07 09:31:13;;;;;;;23.40;9.30;;;;;;;14.83;37.08;100071.50;107407;1256;98357;-61
2023/03/07 09:33:42;;;;;;;18.90;8.30;;;;;;;15.67;34.40;100070.80;107428;1257;110907;-60
2023/03/07 09:36:16;;;;;;;14.90;7.90;;;;;;;16.37;32.67;100073.66;107431;1254;109723;-60
2023/03/07 09:38:46;;;;;;;17.90;7.50;;;;;;;16.80;31.13;100072.48;107443;1254;107508;-61
2023/03/07 09:41:26;;;;;;;15.10;7.40;;;;;;;17.26;30.56;100077.35;107395;1257;97940;-63
2023/03/07 09:44:30;;;;;;;9.30;5.80;;;;;;;17.68;29.05;100084.70;107320;1255;98251;-61
2023/03/07 09:48:02;;;;;;;11.70;7.80;;;;;;;18.04;28.85;100082.80;107268;1254;111633;-61
2023/03/07 09:50:44;;;;;;;12.70;8.40;;;;;;;18.49;28.18;100086.17;107398;1257;110847;-63
2023/03/07 09:53:23;;;;;;;16.20;7.70;;;;;;;18.88;28.41;100077.11;107176;1257;221578;-63
2023/03/07 09:55:54;;;;;;;13.30;6.50;;;;;;;19.71;30.41;100071.04;107424;1254;97914;-62
2023/03/07 09:58:24;;;;;;;14.90;5.90;;;;;;;20.50;28.68;100065.56;107423;1254;97838;-60
2023/03/07 10:01:00;;;;;;;12.80;4.90;;;;;;;20.83;26.29;100069.05;107475;1258;111913;-63
2023/03/07 10:03:36;;;;;;;9.20;4.90;;;;;;;20.72;25.36;100080.88;107451;1254;109724;-62
2023/03/07 10:06:41;;;;;;;9.30;4.40;;;;;;;20.93;25.72;100073.26;107418;1254;108104;-62
2023/03/07 10:09:18;;;;;;;9.20;3.90;;;;;;;20.67;23.68;100078.21;107074;1259;97866;-62
2023/03/07 10:12:17;;;;;;;6.70;3.90;;;;;;;20.71;24.76;100071.64;107485;1254;98459;-61
2023/03/07 10:15:03;;;;;;;6.10;4.20;;;;;;;20.89;24.98;100058.52;107108;1254;111435;-62
2023/03/07 10:18:06;;;;;;;8.60;3.40;;;;;;;20.89;23.52;100067.44;107425;1254;109228;-62
2023/03/07 10:21:11;;;;;;;5.20;3.60;;;;;;;20.43;23.70;100063.39;107426;1254;107737;-62
2023/03/07 10:24:01;;;;;;;4.10;2.90;;;;;;;20.40;24.36;100057.35;107232;1254;97957;-61
2023/03/07 10:26:36;;;;;;;6.40;3.50;;;;;;;20.73;23.82;100060.77;107398;1254;98367;-63
2023/03/07 10:29:18;;;;;;;7.60;3.10;;;;;;;20.83;24.10;100051.55;107414;1254;111165;-61
2023/03/07 10:31:53;;;;;;;6.50;3.60;;;;;;;21.03;24.36;100055.64;107385;1254;108831;-62
2023/03/07 10:34:28;;;;;;;6.50;3.80;;;;;;;20.61;23.87;100055.52;107424;1258;107947;-61
2023/03/07 10:37:10;;;;;;;14.70;8.00;;;;;;;20.37;24.36;100058.29;107460;1254;97826;-61
2023/03/07 10:39:54;;;;;;;14.90;9.20;;;;;;;20.54;24.58;100064.70;107476;1254;97746;-61
2023/03/07 10:42:25;;;;;;;18.70;7.80;;;;;;;20.91;24.34;100059.23;107451;1257;111384;-63
2023/03/07 10:44:54;;;;;;;23.10;8.50;;;;;;;21.55;24.66;100056.68;107472;1254;110243;-62
2023/03/07 10:47:25;;;;;;;16.30;7.70;;;;;;;22.17;24.27;100054.19;107491;1254;106962;-61
2023/03/07 10:50:22;;;;;;;16.20;8.50;;;;;;;22.39;23.85;100051.27;107425;1254;97825;-61
2023/03/07 10:52:55;;;;;;;14.90;7.60;;;;;;;22.47;23.45;100053.64;107423;1254;97909;-61
2023/03/07 10:55:39;;;;;;;14.90;7.70;;;;;;;22.38;23.18;100057.25;107356;1254;111350;-62
2023/03/07 10:58:29;;;;;;;16.80;7.10;;;;;;;22.49;23.18;100057.41;107474;1259;109005;-61
2023/03/07 11:01:09;;;;;;;13.20;7.50;;;;;;;22.27;22.54;100056.50;107445;1260;108206;-61
2023/03/07 11:03:45;;;;;;;11.50;7.20;;;;;;;21.84;23.07;100059.34;107441;1255;97851;-61
2023/03/07 11:06:50;;;;;;;16.30;7.90;;;;;;;21.52;23.64;100058.79;107414;1254;97720;-63
2023/03/07 11:09:31;;;;;;;13.60;7.60;;;;;;;21.49;23.57;100051.54;107418;1254;110847;-61
2023/03/07 11:12:12;;;;;;;14.40;7.70;;;;;;;21.07;23.88;100051.36;107464;1254;111106;-61
2023/03/07 11:14:49;;;;;;;12.30;8.40;;;;;;;20.71;24.24;100053.90;107358;1257;109447;-61
2023/03/07 11:17:21;;;;;;;15.60;7.60;;;;;;;20.52;24.88;100050.67;107444;1258;97707;-61
2023/03/07 11:19:54;;;;;;;21.00;7.90;;;;;;;20.46;24.63;100050.67;107448;1255;97704;-60
2023/03/07 11:22:33;;;;;;;26.50;8.90;;;;;;;20.12;24.38;100050.35;107456;1256;111887;-60